Hlavní strana
METAR-TAF:

METAR-TAF

Letiště :

Diyarbakır, Turecko

zeměpisná šířka: 37-53N, zeměpisná délka: 040-11E, výška: 686 m

Aktuální stav počasí

Zpráva byla vytvořena před 27 minutami, v 04:20 UTC
Severovýchodní vítr 6 kt
Teplota 30°C
Vlhkost vzduchu 33%
Tlak 1003 hPa
Viditelnost 10 km a více
Žádná oblačnost pod 1500 m, nevyskytují se cumulonimby.

METAR: LTCC 060420Z 05006KT CAVOK 30/12 Q1003 NOSIG RMK RWY16 34008KT 280V010

Čas: 07:47 (04:47 UTC)

Předpověď počasí

Zpráva byla vytvořena před 6 hodinami a 7 minutami, v 22:40 UTC
Předpověď platná od 06 v 00 UTC do 06 v 24 UTC
Severoseverozápadní vítr 6 kt
Viditelnost 10 km a více
Žádná oblačnost pod 1500 m, nevyskytují se cumulonimby.
Změna
od 06 v 09 UTC do 06 v 11 UTC
Skoro jasno ve výšce 4000 ft

TAF: LTCC 052240Z 0600/0624 34006KT CAVOK BECMG 0609/0611 FEW040

Stav a předpovědi počasí z více než 4 000 letišť (zprávy METAR a TAF).

Červené a žluté tečky na mapě představují dostupné meteorologické stanice.

Když kurzor umístíte na tečku, zobrazí se název stanice.

Pak kliknutím zobrazíte stav a předpověď počasí.

Chcete-li změnit mapu, kliknutím na zelené tlačítko se znaménkem +mapu přiblížíte, kliknutím na zelené tlačítko se znaménkem – mapu oddálíte a kliknutím na zelené šipky přejdete na sousední mapy.


METAR-TAF: